createdAt,value
2023-04-11T00:01:49.623Z,101167.97
2023-04-11T00:04:17.671Z,101165.75
2023-04-11T00:06:45.144Z,101160.34
2023-04-11T00:09:12.620Z,101159.38
2023-04-11T00:11:39.907Z,101152.34
2023-04-11T00:14:07.559Z,101152.59
2023-04-11T00:16:35.845Z,101143.56
2023-04-11T00:19:03.300Z,101140.09
2023-04-11T00:21:30.565Z,101145.19
2023-04-11T00:23:57.829Z,101151.38
2023-04-11T00:26:26.053Z,101152.72
2023-04-11T00:28:53.573Z,101155.41
2023-04-11T00:31:21.168Z,101146.53
2023-04-11T00:33:48.526Z,101141.09
2023-04-11T00:36:16.341Z,101154.50
2023-04-11T00:38:44.716Z,101150.47
2023-04-11T00:41:12.214Z,101144.03
2023-04-11T00:43:39.519Z,101142.41
2023-04-11T00:46:09.167Z,101133.44
2023-04-11T00:48:36.934Z,101142.25
2023-04-11T00:51:04.334Z,101136.16
2023-04-11T00:53:32.913Z,101120.31
2023-04-11T00:56:00.617Z,101140.94
2023-04-11T00:58:28.573Z,101140.06
2023-04-11T01:00:56.000Z,101136.56
2023-04-11T01:03:23.822Z,101117.94
2023-04-11T01:05:53.778Z,101118.94
2023-04-11T01:08:22.519Z,101122.41
2023-04-11T01:10:50.529Z,101124.94
2023-04-11T01:13:20.668Z,101124.16
2023-04-11T01:15:48.182Z,101124.00
2023-04-11T01:18:15.675Z,101111.56
2023-04-11T01:20:43.128Z,101103.75
2023-04-11T01:23:11.007Z,101105.63
2023-04-11T01:25:38.415Z,101101.03
2023-04-11T01:28:06.537Z,101094.50
2023-04-11T01:30:33.869Z,101080.13
2023-04-11T01:33:01.346Z,101071.53
2023-04-11T01:35:28.806Z,101056.16
2023-04-11T01:37:56.620Z,101047.06
2023-04-11T01:40:24.542Z,101041.63
2023-04-11T01:42:52.892Z,101038.84
2023-04-11T01:45:22.383Z,101031.72
2023-04-11T01:47:51.884Z,101047.97
2023-04-11T01:50:19.249Z,101051.13
2023-04-11T01:52:48.350Z,101068.88
2023-04-11T01:55:16.237Z,101054.06
2023-04-11T01:57:43.796Z,101071.84
2023-04-11T02:00:11.712Z,101087.66
2023-04-11T02:02:42.015Z,101078.31
2023-04-11T02:05:11.075Z,101087.09
2023-04-11T02:07:38.447Z,101074.50
2023-04-11T02:10:06.581Z,101084.22
2023-04-11T02:12:33.939Z,101087.56
2023-04-11T02:15:01.352Z,101078.88
2023-04-11T02:17:31.354Z,101077.84
2023-04-11T02:19:58.869Z,101086.63
2023-04-11T02:22:26.214Z,101082.25
2023-04-11T02:24:53.585Z,101076.06
2023-04-11T02:27:20.949Z,101057.16
2023-04-11T02:29:48.303Z,101051.16
2023-04-11T02:32:16.632Z,101042.19
2023-04-11T02:34:46.595Z,101044.38
2023-04-11T02:37:13.949Z,101033.44
2023-04-11T02:39:41.294Z,101051.69
2023-04-11T02:42:08.858Z,101042.63
2023-04-11T02:44:36.239Z,101053.91
2023-04-11T02:47:04.678Z,101041.66
2023-04-11T02:49:32.378Z,101032.91
2023-04-11T02:52:00.614Z,101024.38
2023-04-11T02:54:28.139Z,101031.59
2023-04-11T02:56:56.730Z,101054.53
2023-04-11T02:59:24.440Z,101046.00
2023-04-11T03:01:58.190Z,101054.88
2023-04-11T03:04:26.577Z,101049.41
2023-04-11T03:07:01.700Z,101052.13
2023-04-11T03:09:29.914Z,101051.47
2023-04-11T03:11:57.536Z,101051.28
2023-04-11T03:14:24.998Z,101050.38
2023-04-11T03:16:52.334Z,101041.59
2023-04-11T03:19:19.721Z,101030.03
2023-04-11T03:21:47.088Z,101017.50
2023-04-11T03:24:14.461Z,101013.72
2023-04-11T03:26:42.795Z,100998.56
2023-04-11T03:29:13.974Z,100990.53
2023-04-11T03:31:54.786Z,100994.09
2023-04-11T03:34:23.511Z,100974.38
2023-04-11T03:36:51.358Z,100963.84
2023-04-11T03:39:21.734Z,100962.09
2023-04-11T03:41:51.140Z,100961.22
2023-04-11T03:44:19.467Z,100962.00
2023-04-11T03:46:47.871Z,100973.31
2023-04-11T03:49:15.387Z,100975.69
2023-04-11T03:51:44.530Z,100981.94
2023-04-11T03:54:11.813Z,100980.81
2023-04-11T03:56:41.507Z,100986.09
2023-04-11T03:59:15.792Z,100984.31
2023-04-11T04:01:54.442Z,100977.09
2023-04-11T04:04:22.026Z,100971.63
2023-04-11T04:06:57.587Z,100975.59
2023-04-11T04:09:32.394Z,100982.94
2023-04-11T04:11:59.750Z,100975.84
2023-04-11T04:14:39.119Z,100973.19
2023-04-11T04:17:07.020Z,100976.69
2023-04-11T04:19:34.320Z,100982.03
2023-04-11T04:22:02.269Z,100977.66
2023-04-11T04:24:38.382Z,100977.47
2023-04-11T04:27:18.171Z,100979.38
2023-04-11T04:29:48.574Z,100967.78
2023-04-11T04:32:24.963Z,100968.69
2023-04-11T04:34:58.834Z,100960.63
2023-04-11T04:37:29.334Z,100967.66
2023-04-11T04:40:15.970Z,100974.81
2023-04-11T04:43:19.242Z,100978.69
2023-04-11T04:45:56.601Z,100980.97
2023-04-11T04:48:29.083Z,100980.97
2023-04-11T04:50:56.407Z,100970.09
2023-04-11T04:53:23.811Z,100964.75
2023-04-11T04:55:56.396Z,100968.06
2023-04-11T04:58:24.804Z,100982.13
2023-04-11T05:00:56.190Z,100976.88
2023-04-11T05:03:28.013Z,100968.88
2023-04-11T05:05:56.804Z,100964.47
2023-04-11T05:08:26.151Z,100951.97
2023-04-11T05:10:56.527Z,100954.69
2023-04-11T05:13:24.252Z,100980.56
2023-04-11T05:15:51.560Z,100964.69
2023-04-11T05:18:19.582Z,100984.81
2023-04-11T05:20:46.963Z,100973.06
2023-04-11T05:23:21.153Z,100964.09
2023-04-11T05:25:50.417Z,100969.34
2023-04-11T05:28:17.823Z,100956.88
2023-04-11T05:30:45.736Z,100946.22
2023-04-11T05:33:15.093Z,100934.69
2023-04-11T05:35:44.107Z,100945.47
2023-04-11T05:38:11.657Z,100941.63
2023-04-11T05:40:40.343Z,100934.25
2023-04-11T05:43:08.572Z,100905.94
2023-04-11T05:45:35.957Z,100898.00
2023-04-11T05:48:07.988Z,100910.53
2023-04-11T05:50:36.062Z,100917.53
2023-04-11T05:53:03.441Z,100912.66
2023-04-11T05:55:30.762Z,100920.63
2023-04-11T05:57:58.038Z,100915.94
2023-04-11T06:00:26.184Z,100912.22
2023-04-11T06:02:54.976Z,100912.97
2023-04-11T06:05:22.396Z,100913.66
2023-04-11T06:07:51.015Z,100921.03
2023-04-11T06:10:18.328Z,100919.88
2023-04-11T06:12:45.788Z,100926.50
2023-04-11T06:15:13.934Z,100925.44
2023-04-11T06:17:41.306Z,100928.31
2023-04-11T06:20:10.303Z,100912.25
2023-04-11T06:22:39.988Z,100919.03
2023-04-11T06:25:07.939Z,100918.00
2023-04-11T06:27:35.354Z,100911.31
2023-04-11T06:30:02.681Z,100909.47
2023-04-11T06:32:30.128Z,100920.03
2023-04-11T06:34:57.486Z,100920.69
2023-04-11T06:37:24.772Z,100911.72
2023-04-11T06:39:52.057Z,100907.34
2023-04-11T06:42:19.388Z,100907.13
2023-04-11T06:44:46.756Z,100906.44
2023-04-11T06:47:14.064Z,100898.38
2023-04-11T06:49:41.403Z,100889.22
2023-04-11T06:52:08.693Z,100880.63
2023-04-11T06:54:36.200Z,100871.09
2023-04-11T06:57:03.688Z,100860.81
2023-04-11T06:59:31.129Z,100866.34
2023-04-11T07:01:59.679Z,100864.19
2023-04-11T07:04:27.361Z,100855.56
2023-04-11T07:06:54.719Z,100863.31
2023-04-11T07:09:22.508Z,100861.50
2023-04-11T07:11:49.983Z,100861.25
2023-04-11T07:14:17.332Z,100850.47
2023-04-11T07:16:44.778Z,100848.09
2023-04-11T07:19:12.218Z,100848.47
2023-04-11T07:21:39.938Z,100853.22
2023-04-11T07:24:07.684Z,100860.44
2023-04-11T07:26:38.493Z,100869.97
2023-04-11T07:29:07.123Z,100862.06
2023-04-11T07:31:37.378Z,100872.91
2023-04-11T07:34:04.750Z,100868.56
2023-04-11T07:36:32.275Z,100865.97
2023-04-11T07:39:00.205Z,100865.22
2023-04-11T07:41:27.561Z,100867.34
2023-04-11T07:43:55.190Z,100861.84
2023-04-11T07:46:22.675Z,100847.94
2023-04-11T07:48:49.987Z,100847.94
2023-04-11T07:51:17.725Z,100843.69
2023-04-11T07:53:45.245Z,100840.41
2023-04-11T07:56:12.646Z,100836.50
2023-04-11T07:58:40.031Z,100825.66
2023-04-11T08:01:19.092Z,100826.00
2023-04-11T08:03:46.615Z,100816.00
2023-04-11T08:06:14.351Z,100823.84
2023-04-11T08:08:41.668Z,100812.97
2023-04-11T08:11:09.061Z,100811.97
2023-04-11T08:13:36.613Z,100813.16
2023-04-11T08:16:06.576Z,100810.47
2023-04-11T08:18:35.254Z,100814.19
2023-04-11T08:21:02.795Z,100812.88
2023-04-11T08:23:30.219Z,100810.88
2023-04-11T08:25:57.592Z,100802.16
2023-04-11T08:28:24.933Z,100794.44
2023-04-11T08:30:58.514Z,100786.25
2023-04-11T08:33:26.181Z,100794.16
2023-04-11T08:35:53.863Z,100792.69
2023-04-11T08:38:21.442Z,100793.19
2023-04-11T08:40:48.758Z,100790.16
2023-04-11T08:43:16.587Z,100792.66
2023-04-11T08:45:43.968Z,100788.63
2023-04-11T08:48:12.547Z,100768.31
2023-04-11T08:50:44.004Z,100770.97
2023-04-11T08:53:22.132Z,100768.88
2023-04-11T08:55:49.611Z,100752.88
2023-04-11T08:58:18.056Z,100758.97
2023-04-11T09:00:45.858Z,100752.31
2023-04-11T09:03:16.544Z,100747.41
2023-04-11T09:05:45.340Z,100745.34
2023-04-11T09:08:15.443Z,100741.94
2023-04-11T09:10:46.344Z,100739.63
2023-04-11T09:13:25.685Z,100733.19
2023-04-11T09:16:13.042Z,100735.59
2023-04-11T09:18:46.633Z,100726.91
2023-04-11T09:21:19.429Z,100719.88
2023-04-11T09:23:46.919Z,100717.13
2023-04-11T09:26:26.445Z,100713.88
2023-04-11T09:28:54.097Z,100706.09
2023-04-11T09:31:22.139Z,100696.41
2023-04-11T09:33:58.527Z,100687.44
2023-04-11T09:36:29.503Z,100688.75
2023-04-11T09:38:57.915Z,100676.75
2023-04-11T09:41:36.252Z,100692.72
2023-04-11T09:44:03.897Z,100683.81
2023-04-11T09:46:31.596Z,100693.31
2023-04-11T09:49:01.806Z,100695.84
2023-04-11T09:51:36.454Z,100686.03
2023-04-11T09:54:06.044Z,100673.22
2023-04-11T09:56:34.900Z,100665.03
2023-04-11T09:59:04.316Z,100659.97
2023-04-11T10:01:32.893Z,100640.16
2023-04-11T10:04:01.486Z,100656.91
2023-04-11T10:06:52.225Z,100650.41
2023-04-11T10:09:20.200Z,100656.13
2023-04-11T10:11:47.729Z,100652.59
2023-04-11T10:14:36.690Z,100671.38
2023-04-11T10:17:18.658Z,100670.25
2023-04-11T10:19:49.519Z,100657.53
2023-04-11T10:22:41.913Z,100644.16
2023-04-11T10:25:15.739Z,100645.69
2023-04-11T10:27:53.650Z,100641.88
2023-04-11T10:30:39.617Z,100640.03
2023-04-11T10:33:14.623Z,100637.28
2023-04-11T10:36:06.590Z,100630.59
2023-04-11T10:38:37.007Z,100628.53
2023-04-11T10:41:17.484Z,100619.38
2023-04-11T10:43:46.125Z,100610.25
2023-04-11T10:46:17.143Z,100590.75
2023-04-11T10:49:02.141Z,100600.09
2023-04-11T10:51:31.546Z,100586.91
2023-04-11T10:54:00.454Z,100591.47
2023-04-11T10:56:40.290Z,100594.25
2023-04-11T10:59:10.065Z,100595.13
2023-04-11T11:04:11.075Z,100583.63
2023-04-11T11:06:47.395Z,100581.34
2023-04-11T11:09:28.403Z,100585.09
2023-04-11T11:12:09.977Z,100583.63
2023-04-11T11:14:38.057Z,100582.59
2023-04-11T11:17:06.786Z,100578.25
2023-04-11T11:19:35.802Z,100575.34
2023-04-11T11:22:04.675Z,100577.88
2023-04-11T11:24:32.696Z,100565.75
2023-04-11T11:27:00.556Z,100570.13
2023-04-11T11:29:33.928Z,100574.16
2023-04-11T11:32:04.173Z,100569.81
2023-04-11T11:34:33.529Z,100551.03
2023-04-11T11:37:05.930Z,100564.31
2023-04-11T11:39:34.480Z,100553.00
2023-04-11T11:42:02.355Z,100557.69
2023-04-11T11:44:31.371Z,100560.47
2023-04-11T11:47:15.229Z,100539.03
2023-04-11T11:49:52.820Z,100545.94
2023-04-11T11:52:41.299Z,100545.78
2023-04-11T11:55:28.672Z,100526.69
2023-04-11T11:58:00.908Z,100537.09
2023-04-11T12:00:30.515Z,100545.00
2023-04-11T12:02:59.765Z,100534.44
2023-04-11T12:05:32.955Z,100539.72
2023-04-11T12:08:04.040Z,100539.28
2023-04-11T12:10:43.030Z,100534.66
2023-04-11T12:13:19.576Z,100525.84
2023-04-11T12:15:57.863Z,100519.09
2023-04-11T12:18:27.775Z,100508.91
2023-04-11T12:20:55.636Z,100516.69
2023-04-11T12:23:23.407Z,100499.81
2023-04-11T12:25:51.101Z,100504.59
2023-04-11T12:28:18.757Z,100507.41
2023-04-11T12:30:46.221Z,100509.34
2023-04-11T12:33:14.039Z,100500.44
2023-04-11T12:35:41.653Z,100498.59
2023-04-11T12:38:09.844Z,100499.50
2023-04-11T12:40:38.621Z,100483.16
2023-04-11T12:43:07.201Z,100488.13
2023-04-11T12:45:34.610Z,100479.81
2023-04-11T12:48:02.237Z,100476.03
2023-04-11T12:50:29.671Z,100483.16
2023-04-11T12:52:57.108Z,100476.75
2023-04-11T12:55:24.797Z,100473.44
2023-04-11T12:57:52.224Z,100472.38
2023-04-11T13:00:19.875Z,100467.69
2023-04-11T13:02:48.749Z,100455.94
2023-04-11T13:05:17.121Z,100449.00
2023-04-11T13:07:46.243Z,100435.66
2023-04-11T13:10:16.197Z,100421.19
2023-04-11T13:12:44.982Z,100421.66
2023-04-11T13:15:14.495Z,100409.94
2023-04-11T13:17:42.458Z,100406.25
2023-04-11T13:20:11.171Z,100403.97
2023-04-11T13:22:42.980Z,100409.59
2023-04-11T13:25:11.070Z,100406.09
2023-04-11T13:27:40.129Z,100393.38
2023-04-11T13:30:09.887Z,100392.59
2023-04-11T13:32:37.473Z,100394.66
2023-04-11T13:35:05.908Z,100392.66
2023-04-11T13:37:33.403Z,100394.03
2023-04-11T13:40:01.124Z,100375.97
2023-04-11T13:42:28.525Z,100386.50
2023-04-11T13:44:55.847Z,100362.41
2023-04-11T13:47:23.398Z,100377.31
2023-04-11T13:49:50.887Z,100379.59
2023-04-11T13:52:18.536Z,100361.84
2023-04-11T13:54:46.018Z,100356.44
2023-04-11T13:57:13.591Z,100355.69
2023-04-11T13:59:41.140Z,100373.19
2023-04-11T14:02:08.604Z,100370.06
2023-04-11T14:04:36.427Z,100365.53
2023-04-11T14:07:03.916Z,100363.28
2023-04-11T14:09:31.504Z,100368.50
2023-04-11T14:11:58.855Z,100350.72
2023-04-11T14:14:26.362Z,100348.38
2023-04-11T14:16:54.993Z,100345.31
2023-04-11T14:19:24.822Z,100355.81
2023-04-11T14:21:52.291Z,100362.19
2023-04-11T14:24:22.153Z,100349.84
2023-04-11T14:26:50.324Z,100362.97
2023-04-11T14:29:19.075Z,100345.13
2023-04-11T14:31:47.448Z,100344.66
2023-04-11T14:34:14.971Z,100328.88
2023-04-11T14:36:42.357Z,100318.94
2023-04-11T14:39:09.906Z,100322.94
2023-04-11T14:41:37.305Z,100320.13
2023-04-11T14:44:04.818Z,100319.50
2023-04-11T14:46:32.358Z,100311.34
2023-04-11T14:48:59.911Z,100308.56
2023-04-11T14:51:29.072Z,100315.25
2023-04-11T14:53:56.813Z,100316.13
2023-04-11T14:56:25.551Z,100306.19
2023-04-11T14:58:53.095Z,100304.13
2023-04-11T15:01:20.629Z,100308.78
2023-04-11T15:03:48.954Z,100310.41
2023-04-11T15:06:16.438Z,100289.34
2023-04-11T15:08:43.880Z,100313.75
2023-04-11T15:11:11.432Z,100304.03
2023-04-11T15:13:39.017Z,100293.00
2023-04-11T15:16:06.811Z,100303.25
2023-04-11T15:18:35.127Z,100283.81
2023-04-11T15:21:03.446Z,100304.78
2023-04-11T15:23:31.184Z,100297.56
2023-04-11T15:26:01.150Z,100287.16
2023-04-11T15:28:34.271Z,100279.28
2023-04-11T15:31:02.669Z,100284.00
2023-04-11T15:33:31.769Z,100287.44
2023-04-11T15:36:00.687Z,100286.94
2023-04-11T15:38:28.965Z,100269.44
2023-04-11T15:40:58.578Z,100292.97
2023-04-11T15:43:26.454Z,100287.25
2023-04-11T15:45:54.566Z,100265.97
2023-04-11T15:48:22.055Z,100275.38
2023-04-11T15:50:50.816Z,100278.09
2023-04-11T15:53:18.312Z,100257.81
2023-04-11T15:55:47.567Z,100265.78
2023-04-11T15:58:15.816Z,100264.06
2023-04-11T16:00:43.734Z,100262.97
2023-04-11T16:03:11.338Z,100268.59
2023-04-11T16:05:41.371Z,100273.56
2023-04-11T16:08:08.895Z,100273.53
2023-04-11T16:10:36.557Z,100255.59
2023-04-11T16:13:03.962Z,100269.88
2023-04-11T16:15:32.029Z,100277.34
2023-04-11T16:17:59.409Z,100275.16
2023-04-11T16:20:27.020Z,100276.25
2023-04-11T16:22:54.463Z,100276.69
2023-04-11T16:25:21.940Z,100270.19
2023-04-11T16:27:51.105Z,100267.72
2023-04-11T16:30:19.263Z,100261.84
2023-04-11T16:32:46.881Z,100265.44
2023-04-11T16:35:14.368Z,100270.84
2023-04-11T16:37:41.740Z,100238.50
2023-04-11T16:40:12.675Z,100258.25
2023-04-11T16:42:40.454Z,100241.69
2023-04-11T16:45:09.856Z,100240.44
2023-04-11T16:47:37.852Z,100242.53
2023-04-11T16:50:05.995Z,100248.88
2023-04-11T16:52:33.894Z,100249.84
2023-04-11T16:55:02.953Z,100244.16
2023-04-11T16:57:33.187Z,100248.56
2023-04-11T17:00:01.073Z,100225.50
2023-04-11T17:02:29.640Z,100235.19
2023-04-11T17:04:57.202Z,100227.78
2023-04-11T17:07:25.017Z,100229.69
2023-04-11T17:09:52.513Z,100242.47
2023-04-11T17:12:19.949Z,100248.81
2023-04-11T17:14:47.650Z,100239.72
2023-04-11T17:17:15.154Z,100235.63
2023-04-11T17:19:42.812Z,100231.72
2023-04-11T17:22:11.704Z,100237.72
2023-04-11T17:24:40.671Z,100227.44
2023-04-11T17:27:08.176Z,100231.53
2023-04-11T17:29:35.690Z,100225.91
2023-04-11T17:32:04.052Z,100231.63
2023-04-11T17:34:31.779Z,100221.66
2023-04-11T17:36:59.221Z,100235.00
2023-04-11T17:39:26.574Z,100236.09
2023-04-11T17:41:53.946Z,100234.44
2023-04-11T17:44:21.520Z,100230.44
2023-04-11T17:46:49.002Z,100239.66
2023-04-11T17:49:16.514Z,100244.47
2023-04-11T17:51:52.460Z,100236.75
2023-04-11T17:54:26.117Z,100237.72
2023-04-11T17:56:53.923Z,100230.81
2023-04-11T17:59:21.432Z,100237.06
2023-04-11T18:01:48.907Z,100236.50
2023-04-11T18:04:16.522Z,100233.63
2023-04-11T18:06:46.215Z,100244.00
2023-04-11T18:09:15.813Z,100241.97
2023-04-11T18:11:44.146Z,100231.78
2023-04-11T18:14:11.767Z,100248.63
2023-04-11T18:16:40.433Z,100251.31
2023-04-11T18:19:08.418Z,100253.31
2023-04-11T18:21:35.966Z,100254.78
2023-04-11T18:24:04.167Z,100261.03
2023-04-11T18:26:31.683Z,100261.03
2023-04-11T18:29:00.439Z,100253.41
2023-04-11T18:31:28.281Z,100259.00
2023-04-11T18:33:55.984Z,100257.81
2023-04-11T18:36:24.648Z,100269.38
2023-04-11T18:38:53.590Z,100283.00
2023-04-11T18:41:21.367Z,100281.34
2023-04-11T18:43:48.901Z,100279.72
2023-04-11T18:46:16.629Z,100290.84
2023-04-11T18:48:44.083Z,100286.97
2023-04-11T18:51:11.523Z,100287.38
2023-04-11T18:53:40.055Z,100295.06
2023-04-11T18:56:08.010Z,100286.72
2023-04-11T18:58:39.666Z,100302.78
2023-04-11T19:01:15.614Z,100288.63
2023-04-11T19:03:44.952Z,100297.53
2023-04-11T19:06:14.020Z,100296.63
2023-04-11T19:08:41.840Z,100282.41
2023-04-11T19:11:09.753Z,100303.22
2023-04-11T19:13:37.722Z,100315.63
2023-04-11T19:16:05.950Z,100315.34
2023-04-11T19:18:34.435Z,100330.22
2023-04-11T19:21:05.057Z,100315.91
2023-04-11T19:23:33.982Z,100319.66
2023-04-11T19:26:02.396Z,100325.16
2023-04-11T19:28:30.318Z,100311.75
2023-04-11T19:30:57.830Z,100319.75
2023-04-11T19:33:27.015Z,100333.19
2023-04-11T19:35:55.859Z,100343.78
2023-04-11T19:38:23.994Z,100335.28
2023-04-11T19:40:52.357Z,100352.53
2023-04-11T19:43:20.373Z,100337.25
2023-04-11T19:45:50.054Z,100330.13
2023-04-11T19:48:18.527Z,100341.94
2023-04-11T19:50:47.510Z,100338.47
2023-04-11T19:53:15.212Z,100341.75
2023-04-11T19:55:59.672Z,100328.47
2023-04-11T19:58:27.413Z,100324.22
2023-04-11T20:00:55.470Z,100342.13
2023-04-11T20:03:23.142Z,100323.66
2023-04-11T20:05:50.897Z,100338.81
2023-04-11T20:08:18.919Z,100340.63
2023-04-11T20:10:46.834Z,100337.34
2023-04-11T20:13:17.303Z,100334.84
2023-04-11T20:15:44.892Z,100342.25
2023-04-11T20:18:12.829Z,100342.56
2023-04-11T20:20:41.449Z,100330.25
2023-04-11T20:23:08.872Z,100344.63
2023-04-11T20:25:36.435Z,100346.13
2023-04-11T20:28:03.990Z,100345.19
2023-04-11T20:30:32.455Z,100341.16
2023-04-11T20:33:00.024Z,100350.06
2023-04-11T20:35:27.585Z,100347.22
2023-04-11T20:37:58.569Z,100343.03
2023-04-11T20:40:31.495Z,100354.22
2023-04-11T20:43:02.087Z,100367.09
2023-04-11T20:45:30.929Z,100384.41
2023-04-11T20:48:01.729Z,100372.56
2023-04-11T20:50:33.380Z,100362.50
2023-04-11T20:53:01.648Z,100373.59
2023-04-11T20:55:30.066Z,100374.81
2023-04-11T20:57:57.492Z,100357.28
2023-04-11T21:00:26.116Z,100377.56
2023-04-11T21:02:54.334Z,100364.69
2023-04-11T21:05:25.576Z,100378.50
2023-04-11T21:07:54.434Z,100365.69
2023-04-11T21:10:22.182Z,100373.72
2023-04-11T21:12:51.763Z,100374.66
2023-04-11T21:15:20.565Z,100387.63
2023-04-11T21:17:48.409Z,100376.91
2023-04-11T21:20:20.095Z,100383.09
2023-04-11T21:22:48.032Z,100386.66
2023-04-11T21:25:16.442Z,100382.06
2023-04-11T21:27:43.951Z,100393.75
2023-04-11T21:30:12.594Z,100387.28
2023-04-11T21:32:40.628Z,100392.78
2023-04-11T21:35:09.773Z,100385.25
2023-04-11T21:37:37.370Z,100393.75
2023-04-11T21:40:05.560Z,100399.19
2023-04-11T21:42:33.060Z,100403.00
2023-04-11T21:45:00.502Z,100399.66
2023-04-11T21:47:27.906Z,100372.22
2023-04-11T21:49:55.482Z,100379.25
2023-04-11T21:52:22.882Z,100389.75
2023-04-11T21:54:50.309Z,100371.88
2023-04-11T21:57:17.777Z,100391.56
2023-04-11T21:59:45.431Z,100370.94
2023-04-11T22:02:13.206Z,100392.28
2023-04-11T22:04:55.837Z,100371.34
2023-04-11T22:07:32.362Z,100391.97
2023-04-11T22:10:09.147Z,100382.75
2023-04-11T22:12:37.314Z,100379.66
2023-04-11T22:15:06.624Z,100373.34
2023-04-11T22:17:34.947Z,100360.84
2023-04-11T22:20:03.745Z,100376.56
2023-04-11T22:22:31.174Z,100360.56
2023-04-11T22:24:59.926Z,100369.97
2023-04-11T22:27:27.458Z,100369.03
2023-04-11T22:29:59.701Z,100356.16
2023-04-11T22:32:27.299Z,100359.19
2023-04-11T22:34:54.750Z,100361.34
2023-04-11T22:37:22.103Z,100364.38
2023-04-11T22:39:49.937Z,100366.72
2023-04-11T22:42:17.391Z,100340.28
2023-04-11T22:44:44.888Z,100373.94
2023-04-11T22:47:13.669Z,100366.19
2023-04-11T22:49:42.085Z,100363.25
2023-04-11T22:52:14.074Z,100355.03
2023-04-11T22:54:42.552Z,100362.53
2023-04-11T22:57:10.211Z,100353.41
2023-04-11T22:59:37.788Z,100353.91
2023-04-11T23:02:05.682Z,100365.75
2023-04-11T23:04:33.254Z,100385.34
2023-04-11T23:07:00.845Z,100373.44
2023-04-11T23:09:28.436Z,100355.78
2023-04-11T23:11:56.003Z,100359.25
2023-04-11T23:14:24.450Z,100359.84
2023-04-11T23:16:51.872Z,100368.53
2023-04-11T23:19:19.925Z,100376.00
2023-04-11T23:21:47.490Z,100374.19
2023-04-11T23:24:15.940Z,100367.88
2023-04-11T23:26:43.509Z,100383.09
2023-04-11T23:29:11.246Z,100367.47
2023-04-11T23:31:38.750Z,100372.06
2023-04-11T23:34:07.079Z,100368.16
2023-04-11T23:36:34.613Z,100376.06
2023-04-11T23:39:02.277Z,100385.78
2023-04-11T23:41:30.347Z,100371.38
2023-04-11T23:43:58.026Z,100356.31
2023-04-11T23:46:26.263Z,100368.53
2023-04-11T23:48:53.930Z,100361.44
2023-04-11T23:51:21.629Z,100341.16
2023-04-11T23:53:49.805Z,100350.56
2023-04-11T23:56:17.338Z,100342.69
2023-04-11T23:58:44.877Z,100344.94
